Time;durP1;ratioP1;P1;durP2;ratioP2;P2;SDS_P1;SDS_P2;PMS_P1;PMS_P2;Temp;Humidity;BMP_temperature;BMP_pressure;BME280_temperature;BME280_humidity;BME280_pressure;Samples;Min_cycle;Max_cycle;Signal;HPM_P1;HPM_P2
2023/09/21 00:00:16;;;;;;;2.83;2.00;;;19.50;99.90;;;;;;5031495;28;20211;-66
2023/09/21 00:02:49;;;;;;;4.57;2.80;;;19.50;99.90;;;;;;5028149;28;20741;-67
2023/09/21 00:05:19;;;;;;;3.40;2.50;;;19.40;99.90;;;;;;5035045;28;20201;-67
2023/09/21 00:07:45;;;;;;;3.10;2.43;;;19.50;99.90;;;;;;5040021;28;20207;-67
2023/09/21 00:10:12;;;;;;;3.53;2.07;;;19.50;99.90;;;;;;5031126;28;20201;-67
2023/09/21 00:12:38;;;;;;;2.97;2.43;;;19.50;99.90;;;;;;5037916;28;20233;-67
2023/09/21 00:15:06;;;;;;;3.13;2.67;;;19.40;99.90;;;;;;5035980;28;20723;-66
2023/09/21 00:17:36;;;;;;;3.50;2.37;;;19.20;99.90;;;;;;5016651;28;20875;-67
2023/09/21 00:20:17;;;;;;;2.43;2.23;;;19.20;99.90;;;;;;5031499;28;20268;-67
2023/09/21 00:22:43;;;;;;;4.13;2.20;;;19.30;99.90;;;;;;5040123;28;20208;-66
2023/09/21 00:25:09;;;;;;;2.70;2.43;;;19.30;99.90;;;;;;5019891;28;20202;-67
2023/09/21 00:27:35;;;;;;;2.50;2.03;;;19.20;99.90;;;;;;5037312;28;20199;-67
2023/09/21 00:30:05;;;;;;;3.30;2.70;;;19.10;99.90;;;;;;5035981;28;20201;-67
2023/09/21 00:32:31;;;;;;;3.70;2.57;;;19.10;99.90;;;;;;5038237;28;20224;-67
2023/09/21 00:34:56;;;;;;;2.57;2.37;;;19.10;99.90;;;;;;5037600;28;20225;-67
2023/09/21 00:37:23;;;;;;;3.60;2.40;;;19.20;99.90;;;;;;5015000;28;20205;-67
2023/09/21 00:39:49;;;;;;;3.20;2.47;;;19.20;99.90;;;;;;5036012;28;20718;-67
2023/09/21 00:42:17;;;;;;;2.80;2.50;;;19.20;99.90;;;;;;5033918;28;20196;-75
2023/09/21 00:44:43;;;;;;;4.87;2.30;;;19.20;99.90;;;;;;5035865;28;20201;-62
2023/09/21 00:47:08;;;;;;;2.60;2.20;;;19.10;99.90;;;;;;5034891;28;20231;-62
2023/09/21 00:49:36;;;;;;;2.37;2.17;;;19.10;99.90;;;;;;5035080;28;20216;-61
2023/09/21 00:52:01;;;;;;;3.27;2.17;;;19.10;99.90;;;;;;5036819;28;20231;-61
2023/09/21 00:54:28;;;;;;;3.93;2.40;;;19.10;99.90;;;;;;5038188;28;21017;-65
2023/09/21 00:56:54;;;;;;;3.37;2.33;;;19.10;99.90;;;;;;5032734;28;20263;-65
2023/09/21 00:59:21;;;;;;;3.30;2.03;;;19.00;99.90;;;;;;5017083;28;20213;-65
2023/09/21 01:01:48;;;;;;;2.83;2.40;;;19.00;99.90;;;;;;5037479;28;20826;-66
2023/09/21 01:04:14;;;;;;;3.20;2.50;;;18.80;99.90;;;;;;5036213;28;20203;-65
2023/09/21 01:06:41;;;;;;;4.20;2.77;;;18.80;99.90;;;;;;5035510;28;20209;-67
2023/09/21 01:09:07;;;;;;;6.07;2.70;;;18.70;99.90;;;;;;5035180;28;20208;-66
2023/09/21 01:11:37;;;;;;;3.67;2.53;;;18.80;99.90;;;;;;5037282;28;20198;-65
2023/09/21 01:14:03;;;;;;;3.47;2.60;;;18.90;99.90;;;;;;5035819;28;20357;-68
2023/09/21 01:16:30;;;;;;;3.50;2.60;;;18.80;99.90;;;;;;5035001;28;20801;-67
2023/09/21 01:18:55;;;;;;;2.83;2.33;;;18.80;99.90;;;;;;5035085;28;20614;-66
2023/09/21 01:21:35;;;;;;;2.80;2.47;;;18.60;99.90;;;;;;5042539;28;20750;-69
2023/09/21 01:24:01;;;;;;;3.23;2.10;;;18.60;99.90;;;;;;5040674;28;20242;-63
2023/09/21 01:26:27;;;;;;;4.57;2.60;;;18.70;99.90;;;;;;5021116;28;20289;-73
2023/09/21 01:28:56;;;;;;;8.30;2.87;;;18.70;99.90;;;;;;5040679;28;20301;-73
2023/09/21 01:31:22;;;;;;;5.60;2.50;;;18.70;99.90;;;;;;5040670;28;20201;-68
2023/09/21 01:33:47;;;;;;;4.70;2.27;;;18.60;99.90;;;;;;5036837;28;20196;-67
2023/09/21 01:36:15;;;;;;;4.60;2.70;;;18.60;99.90;;;;;;5036977;28;20317;-66
2023/09/21 01:38:46;;;;;;;3.03;2.50;;;18.60;99.90;;;;;;5024871;28;20199;-68
2023/09/21 01:41:17;;;;;;;4.63;2.90;;;18.50;99.90;;;;;;5040886;28;20215;-68
2023/09/21 01:43:42;;;;;;;7.57;2.40;;;18.40;99.90;;;;;;5034016;28;20211;-66
2023/09/21 01:46:09;;;;;;;3.10;2.43;;;18.50;99.90;;;;;;5035434;28;20205;-67
2023/09/21 01:48:34;;;;;;;6.13;2.63;;;18.60;99.90;;;;;;5037437;28;20212;-72
2023/09/21 01:51:00;;;;;;;3.40;2.27;;;18.50;99.90;;;;;;5040669;28;20220;-71
2023/09/21 01:53:26;;;;;;;4.00;2.37;;;18.40;99.90;;;;;;5039499;28;20192;-66
2023/09/21 01:55:52;;;;;;;2.37;2.17;;;18.50;99.90;;;;;;5043789;28;20721;-66
2023/09/21 01:58:19;;;;;;;2.40;2.20;;;18.40;99.90;;;;;;5036087;28;20824;-66
2023/09/21 02:00:46;;;;;;;2.77;2.37;;;18.30;99.90;;;;;;5035039;28;20478;-66
2023/09/21 02:03:14;;;;;;;2.43;2.23;;;18.30;99.90;;;;;;5036574;28;20316;-67
2023/09/21 02:05:40;;;;;;;5.37;2.77;;;18.30;99.90;;;;;;5038738;28;20256;-66
2023/09/21 02:08:08;;;;;;;3.60;2.40;;;18.20;99.90;;;;;;5035956;28;20201;-67
2023/09/21 02:10:38;;;;;;;2.37;2.13;;;18.20;99.90;;;;;;5037130;28;20232;-62
2023/09/21 02:13:08;;;;;;;2.73;2.43;;;18.20;99.90;;;;;;5032651;28;20200;-62
2023/09/21 02:15:38;;;;;;;3.17;2.87;;;18.10;99.90;;;;;;5030089;28;20588;-68
2023/09/21 02:18:05;;;;;;;5.00;2.67;;;18.10;99.90;;;;;;5036350;28;20207;-70
2023/09/21 02:20:31;;;;;;;6.07;2.70;;;18.10;99.90;;;;;;5040543;28;20246;-68
2023/09/21 02:22:59;;;;;;;5.00;3.03;;;18.10;99.90;;;;;;5034033;28;20208;-68
2023/09/21 02:25:25;;;;;;;3.03;2.47;;;18.10;99.90;;;;;;5037630;28;20241;-68
2023/09/21 02:27:51;;;;;;;4.00;2.23;;;18.20;99.90;;;;;;5040222;28;20279;-68
2023/09/21 02:30:23;;;;;;;6.27;2.77;;;18.10;99.90;;;;;;5038839;28;20856;-65
2023/09/21 02:32:53;;;;;;;3.03;2.73;;;18.00;99.90;;;;;;5040069;28;20202;-69
2023/09/21 02:35:25;;;;;;;2.73;2.53;;;18.10;99.90;;;;;;5042549;28;20218;-69
2023/09/21 02:37:52;;;;;;;3.10;2.57;;;18.00;99.90;;;;;;5035399;28;20207;-70
2023/09/21 02:40:19;;;;;;;2.57;2.37;;;18.00;99.90;;;;;;5036141;28;20207;-75
2023/09/21 02:42:49;;;;;;;2.50;2.30;;;18.00;99.90;;;;;;5017696;28;20250;-63
2023/09/21 02:45:16;;;;;;;2.73;2.53;;;18.00;99.90;;;;;;5033177;28;20211;-82
2023/09/21 02:47:41;;;;;;;2.97;2.63;;;17.90;99.90;;;;;;5020601;28;20228;-75
2023/09/21 02:50:14;;;;;;;4.37;2.87;;;17.90;99.90;;;;;;5018597;28;20206;-76
2023/09/21 02:53:06;;;;;;;3.10;2.90;;;17.90;99.90;;;;;;5013846;28;20261;-70
2023/09/21 02:55:33;;;;;;;6.37;2.30;;;18.00;99.90;;;;;;5018592;28;20226;-80
2023/09/21 02:58:04;;;;;;;3.00;2.57;;;17.90;99.90;;;;;;5019501;28;20204;-67
2023/09/21 03:03:00;;;;;;;3.00;2.57;;;17.80;99.90;;;;;;5016634;28;20199;-65
2023/09/21 03:05:27;;;;;;;3.50;2.50;;;17.80;99.90;;;;;;5013954;28;20205;-65
2023/09/21 03:07:54;;;;;;;2.83;2.63;;;17.90;99.90;;;;;;5021193;28;20235;-64
2023/09/21 03:10:21;;;;;;;3.07;2.80;;;17.80;99.90;;;;;;5015773;28;20211;-70
2023/09/21 03:12:51;;;;;;;3.63;2.60;;;17.80;99.90;;;;;;5014961;28;20609;-69
2023/09/21 03:15:19;;;;;;;3.70;2.73;;;17.80;99.90;;;;;;5016139;28;20228;-69
2023/09/21 03:17:45;;;;;;;2.50;2.30;;;17.90;99.90;;;;;;5016888;28;20218;-68
2023/09/21 03:20:13;;;;;;;2.80;2.60;;;17.80;99.90;;;;;;5017181;28;20689;-68
2023/09/21 03:22:41;;;;;;;2.70;2.50;;;17.80;99.90;;;;;;5017548;28;20313;-69
2023/09/21 03:25:16;;;;;;;3.10;2.30;;;17.70;99.90;;;;;;5014778;28;20555;-68
2023/09/21 03:27:42;;;;;;;3.90;2.10;;;17.60;99.90;;;;;;5014510;28;20286;-69
2023/09/21 03:30:11;;;;;;;4.93;2.90;;;17.60;99.90;;;;;;5022344;28;20195;-71
2023/09/21 03:32:39;;;;;;;6.40;3.20;;;17.60;99.90;;;;;;5015131;28;20566;-70
2023/09/21 03:35:06;;;;;;;4.00;2.90;;;17.60;99.90;;;;;;5016885;28;20208;-69
2023/09/21 03:37:31;;;;;;;3.10;2.70;;;17.60;99.90;;;;;;5016032;28;20209;-69
2023/09/21 03:39:57;;;;;;;3.70;3.27;;;17.50;99.90;;;;;;5013936;28;20227;-70
2023/09/21 03:42:23;;;;;;;3.23;2.63;;;17.60;99.90;;;;;;5015657;28;20197;-70
2023/09/21 03:44:48;;;;;;;3.27;2.97;;;17.70;99.90;;;;;;5010313;28;20203;-71
2023/09/21 03:47:17;;;;;;;3.17;2.70;;;17.70;99.90;;;;;;5019320;28;20678;-69
2023/09/21 03:49:44;;;;;;;5.07;3.23;;;17.70;99.90;;;;;;5037378;28;20271;-69
2023/09/21 03:52:15;;;;;;;2.77;2.57;;;17.70;99.90;;;;;;5025357;28;20987;-69
2023/09/21 03:54:42;;;;;;;3.27;2.63;;;17.70;99.90;;;;;;5038353;28;20711;-69
2023/09/21 03:57:11;;;;;;;5.07;3.03;;;17.70;99.90;;;;;;5032281;28;20200;-68
2023/09/21 03:59:37;;;;;;;3.43;3.13;;;17.70;99.90;;;;;;5040078;28;20202;-67
2023/09/21 04:02:03;;;;;;;3.73;2.73;;;17.60;99.90;;;;;;5034635;28;20755;-67
2023/09/21 04:04:29;;;;;;;5.73;2.90;;;17.60;99.90;;;;;;5034246;28;20198;-66
2023/09/21 04:06:56;;;;;;;3.30;3.00;;;17.60;99.90;;;;;;5037281;28;20204;-66
2023/09/21 04:09:22;;;;;;;4.57;2.70;;;17.50;99.90;;;;;;5038798;28;20395;-67
2023/09/21 04:11:47;;;;;;;3.93;2.60;;;17.40;99.90;;;;;;5036315;28;20202;-67
2023/09/21 04:14:13;;;;;;;3.43;2.83;;;17.40;99.90;;;;;;5041661;28;20549;-68
2023/09/21 04:16:38;;;;;;;3.40;2.60;;;17.40;99.90;;;;;;5036229;28;20222;-69
2023/09/21 04:19:05;;;;;;;2.77;2.40;;;17.40;99.90;;;;;;5034574;28;20217;-68
2023/09/21 04:21:32;;;;;;;3.03;2.83;;;17.40;99.90;;;;;;5026601;28;20315;-69
2023/09/21 04:23:57;;;;;;;4.40;2.50;;;17.40;99.90;;;;;;5034600;28;20700;-69
2023/09/21 04:26:23;;;;;;;5.43;2.80;;;17.50;99.90;;;;;;5039856;28;20520;-71
2023/09/21 04:28:49;;;;;;;4.17;2.77;;;17.50;99.90;;;;;;5038392;28;20212;-70
2023/09/21 04:31:15;;;;;;;4.10;3.00;;;17.50;99.90;;;;;;5037534;28;20205;-70
2023/09/21 04:33:41;;;;;;;3.80;3.00;;;17.40;99.90;;;;;;5039706;28;20254;-71
2023/09/21 04:36:07;;;;;;;3.90;3.23;;;17.50;99.90;;;;;;5035785;28;20269;-69
2023/09/21 04:38:32;;;;;;;5.53;3.27;;;17.40;99.90;;;;;;5033049;28;20270;-68
2023/09/21 04:40:58;;;;;;;3.83;2.80;;;17.50;99.90;;;;;;5029470;28;20198;-71
2023/09/21 04:43:28;;;;;;;5.10;3.40;;;17.50;99.90;;;;;;5038174;28;20575;-71
2023/09/21 04:45:54;;;;;;;2.93;2.70;;;17.50;99.90;;;;;;5032844;28;20323;-71
2023/09/21 04:48:20;;;;;;;2.60;2.40;;;17.40;99.90;;;;;;5029251;28;20234;-71
2023/09/21 04:50:48;;;;;;;4.23;3.20;;;17.40;99.90;;;;;;5018497;28;20215;-70
2023/09/21 04:53:15;;;;;;;8.60;2.97;;;17.30;99.90;;;;;;5034416;28;21207;-72
2023/09/21 04:55:41;;;;;;;6.53;3.30;;;17.30;99.90;;;;;;5033214;28;20214;-70
2023/09/21 04:58:07;;;;;;;5.30;2.90;;;17.30;99.90;;;;;;5029477;28;20258;-70
2023/09/21 05:00:32;;;;;;;3.73;2.67;;;17.40;99.90;;;;;;5039759;28;20200;-71
2023/09/21 05:02:58;;;;;;;4.13;3.00;;;17.40;99.90;;;;;;5023403;28;20194;-70
2023/09/21 05:05:26;;;;;;;3.17;2.87;;;17.40;99.90;;;;;;5042610;28;20238;-70
2023/09/21 05:07:52;;;;;;;5.97;4.03;;;17.40;99.90;;;;;;5039045;28;20277;-71
2023/09/21 05:10:18;;;;;;;3.77;3.40;;;17.50;99.90;;;;;;5040294;28;20665;-71
2023/09/21 05:12:43;;;;;;;4.20;3.03;;;17.40;99.90;;;;;;5043677;28;20208;-70
2023/09/21 05:15:13;;;;;;;3.43;3.13;;;17.40;99.90;;;;;;5039339;28;20370;-69
2023/09/21 05:17:39;;;;;;;3.90;3.53;;;17.50;99.90;;;;;;5023481;28;20201;-68
2023/09/21 05:20:06;;;;;;;3.83;3.33;;;17.50;99.90;;;;;;5034904;28;20225;-67
2023/09/21 05:22:32;;;;;;;4.33;3.30;;;17.40;99.90;;;;;;5039305;28;20213;-62
2023/09/21 05:25:00;;;;;;;3.57;3.17;;;17.40;99.90;;;;;;5041173;28;20224;-62
2023/09/21 05:27:29;;;;;;;3.67;3.23;;;17.40;99.90;;;;;;5028817;28;20303;-67
2023/09/21 05:29:54;;;;;;;6.80;3.40;;;17.40;99.90;;;;;;5039645;28;20589;-66
2023/09/21 05:32:20;;;;;;;3.83;3.43;;;17.40;99.90;;;;;;5035189;28;20244;-72
2023/09/21 05:34:47;;;;;;;3.53;3.13;;;17.40;99.90;;;;;;5044636;28;20828;-72
2023/09/21 05:37:12;;;;;;;4.07;3.43;;;17.40;99.90;;;;;;5039793;28;20247;-70
2023/09/21 05:39:38;;;;;;;5.87;3.50;;;17.40;99.90;;;;;;5041207;28;20296;-69
2023/09/21 05:42:04;;;;;;;4.13;3.20;;;17.40;99.90;;;;;;5030405;28;20255;-68
2023/09/21 05:44:30;;;;;;;3.10;2.80;;;17.50;99.90;;;;;;5017055;28;20670;-70
2023/09/21 05:46:56;;;;;;;3.70;3.40;;;17.50;99.90;;;;;;5040273;28;20251;-70
2023/09/21 05:49:24;;;;;;;5.93;3.67;;;17.40;99.90;;;;;;5037943;28;20227;-70
2023/09/21 05:51:52;;;;;;;5.50;4.20;;;17.40;99.90;;;;;;5039417;28;20830;-70
2023/09/21 05:54:23;;;;;;;3.43;3.13;;;17.50;99.90;;;;;;5034412;28;20204;-67
2023/09/21 05:56:57;;;;;;;5.63;3.23;;;17.50;99.90;;;;;;5036156;28;20216;-66
2023/09/21 05:59:24;;;;;;;5.40;3.90;;;17.50;99.90;;;;;;5035205;28;20250;-66
2023/09/21 06:01:50;;;;;;;5.63;3.23;;;17.60;99.90;;;;;;5041736;28;20212;-66
2023/09/21 06:04:21;;;;;;;6.80;3.60;;;17.60;99.90;;;;;;5034315;28;20228;-67
2023/09/21 06:06:46;;;;;;;4.03;3.37;;;17.60;99.90;;;;;;5016939;28;20762;-65
2023/09/21 06:09:18;;;;;;;4.53;3.40;;;17.70;99.90;;;;;;5034652;28;20196;-66
2023/09/21 06:11:44;;;;;;;6.57;4.13;;;17.80;99.90;;;;;;5035216;28;20204;-66
2023/09/21 06:14:09;;;;;;;4.20;3.03;;;17.70;99.90;;;;;;5038398;28;20202;-66
2023/09/21 06:16:35;;;;;;;4.50;3.20;;;17.80;99.90;;;;;;5040175;28;20236;-67
2023/09/21 06:19:00;;;;;;;4.03;3.67;;;17.60;99.90;;;;;;5034382;28;20334;-67
2023/09/21 06:21:27;;;;;;;4.80;3.37;;;17.50;99.90;;;;;;5039455;28;20685;-67
2023/09/21 06:23:53;;;;;;;4.63;3.03;;;17.50;99.90;;;;;;5042148;28;20195;-67
2023/09/21 06:26:19;;;;;;;3.37;3.03;;;17.50;99.90;;;;;;5036258;28;20654;-68
2023/09/21 06:28:48;;;;;;;6.80;3.30;;;17.60;99.90;;;;;;5038223;28;20200;-67
2023/09/21 06:31:15;;;;;;;5.03;3.50;;;17.70;99.90;;;;;;5036790;28;20221;-65
2023/09/21 06:33:41;;;;;;;6.53;3.23;;;17.70;99.90;;;;;;5031241;28;20251;-66
2023/09/21 06:36:19;;;;;;;7.27;3.77;;;17.80;99.90;;;;;;5037568;28;20228;-66
2023/09/21 06:38:45;;;;;;;7.63;3.57;;;17.80;99.90;;;;;;5037608;28;20267;-67
2023/09/21 06:41:11;;;;;;;3.87;3.57;;;18.00;99.90;;;;;;5034926;28;20203;-67
2023/09/21 06:43:38;;;;;;;4.00;3.37;;;18.00;99.90;;;;;;5035953;28;20207;-66
2023/09/21 06:46:05;;;;;;;3.80;2.90;;;18.00;99.90;;;;;;5039168;28;20678;-66
2023/09/21 06:48:30;;;;;;;6.53;3.47;;;18.10;99.90;;;;;;5034398;28;23609;-66
2023/09/21 06:50:55;;;;;;;4.00;3.03;;;18.20;99.90;;;;;;5033315;28;20214;-66
2023/09/21 06:53:23;;;;;;;6.17;3.17;;;18.10;99.90;;;;;;5038988;28;20315;-66
2023/09/21 06:55:49;;;;;;;3.40;3.03;;;18.10;99.90;;;;;;5039250;28;20210;-66
2023/09/21 06:58:15;;;;;;;3.00;2.80;;;18.20;99.90;;;;;;5041331;28;20292;-66
2023/09/21 07:00:41;;;;;;;8.30;3.77;;;18.30;99.90;;;;;;5039817;28;20707;-66
2023/09/21 07:03:06;;;;;;;6.03;3.10;;;18.40;99.90;;;;;;5039577;28;20203;-66
2023/09/21 07:05:32;;;;;;;4.30;2.97;;;18.40;99.90;;;;;;5041432;28;20204;-66
2023/09/21 07:07:57;;;;;;;6.80;3.67;;;18.40;99.90;;;;;;5013903;28;20701;-66
2023/09/21 07:10:23;;;;;;;5.53;2.87;;;18.40;99.90;;;;;;5037536;28;20204;-64
2023/09/21 07:12:48;;;;;;;3.87;2.93;;;18.40;99.90;;;;;;5041106;28;20210;-64
2023/09/21 07:15:14;;;;;;;8.40;3.90;;;18.50;99.90;;;;;;5038215;28;20225;-65
2023/09/21 07:17:39;;;;;;;6.53;2.77;;;18.60;99.90;;;;;;5040479;28;20201;-65
2023/09/21 07:20:06;;;;;;;6.57;3.00;;;18.70;99.90;;;;;;5026352;28;20193;-65
2023/09/21 07:22:32;;;;;;;4.53;3.13;;;18.80;99.90;;;;;;5009276;28;20206;-64
2023/09/21 07:24:58;;;;;;;4.30;3.00;;;18.90;99.90;;;;;;5036225;28;20208;-65
2023/09/21 07:27:24;;;;;;;5.77;3.37;;;19.00;99.90;;;;;;5033177;28;20565;-66
2023/09/21 07:29:52;;;;;;;3.40;2.77;;;19.00;99.90;;;;;;5031578;28;20236;-65
2023/09/21 07:32:17;;;;;;;4.67;2.73;;;19.00;99.90;;;;;;5013709;28;20232;-67
2023/09/21 07:34:43;;;;;;;7.00;3.23;;;19.20;99.90;;;;;;5042014;28;20194;-67
2023/09/21 07:37:12;;;;;;;3.20;2.90;;;19.30;99.90;;;;;;5038749;28;20230;-67
2023/09/21 07:39:38;;;;;;;4.03;3.20;;;19.40;99.90;;;;;;5030582;28;20216;-66
2023/09/21 07:42:04;;;;;;;3.33;2.70;;;19.50;99.90;;;;;;5029650;28;20689;-67
2023/09/21 07:44:30;;;;;;;6.30;3.07;;;19.60;99.90;;;;;;5021722;28;20269;-66
2023/09/21 07:46:57;;;;;;;5.50;3.03;;;19.60;99.90;;;;;;5021293;28;20289;-66
2023/09/21 07:49:25;;;;;;;3.50;2.63;;;19.70;99.90;;;;;;5042343;28;20263;-66
2023/09/21 07:51:51;;;;;;;3.23;2.53;;;19.90;99.90;;;;;;5034854;28;20252;-65
2023/09/21 07:54:16;;;;;;;2.87;2.53;;;20.00;99.90;;;;;;5029160;28;20546;-66
2023/09/21 07:56:42;;;;;;;3.23;2.93;;;20.00;99.90;;;;;;5038712;28;20212;-66
2023/09/21 07:59:10;;;;;;;3.27;2.97;;;20.10;99.90;;;;;;5036157;28;20184;-62
2023/09/21 08:01:36;;;;;;;4.03;2.87;;;20.10;99.90;;;;;;5041381;28;20621;-63
2023/09/21 08:04:01;;;;;;;5.30;2.80;;;20.10;99.90;;;;;;5017959;28;20188;-62
2023/09/21 08:06:28;;;;;;;2.50;2.30;;;20.20;99.90;;;;;;5036969;28;20199;-62
2023/09/21 08:08:54;;;;;;;3.90;2.60;;;20.40;99.90;;;;;;5033129;28;20271;-64
2023/09/21 08:11:21;;;;;;;5.70;2.40;;;20.50;99.90;;;;;;5027563;28;20287;-64
2023/09/21 08:13:47;;;;;;;6.40;2.73;;;20.50;99.90;;;;;;5035435;28;20279;-67
2023/09/21 08:16:13;;;;;;;2.70;2.50;;;20.60;99.90;;;;;;5034777;28;20732;-66
2023/09/21 08:18:39;;;;;;;3.63;2.17;;;20.70;99.90;;;;;;5030347;28;20219;-67
2023/09/21 08:21:06;;;;;;;3.43;2.50;;;20.80;99.90;;;;;;5037316;28;20197;-67
2023/09/21 08:23:32;;;;;;;5.43;2.50;;;20.80;99.90;;;;;;5033360;28;20789;-61
2023/09/21 08:25:58;;;;;;;4.10;2.70;;;21.00;99.90;;;;;;5031567;28;20201;-69
2023/09/21 08:28:24;;;;;;;2.67;2.47;;;21.10;99.90;;;;;;5036751;28;21175;-69
2023/09/21 08:30:50;;;;;;;4.87;2.50;;;21.20;99.90;;;;;;5042090;28;20867;-62
2023/09/21 08:33:17;;;;;;;2.63;2.43;;;21.10;99.90;;;;;;5039955;28;21083;-62
2023/09/21 08:35:43;;;;;;;3.70;2.20;;;21.10;99.90;;;;;;5045257;28;20254;-70
2023/09/21 08:38:09;;;;;;;3.47;2.00;;;21.20;99.90;;;;;;5040724;28;20197;-68
2023/09/21 08:40:37;;;;;;;5.33;2.37;;;21.30;99.90;;;;;;5043402;28;20217;-67
2023/09/21 08:43:04;;;;;;;5.23;2.57;;;21.30;99.90;;;;;;5037206;28;20195;-65
2023/09/21 08:45:33;;;;;;;2.57;2.37;;;21.40;99.90;;;;;;5038033;28;20736;-69
2023/09/21 08:48:02;;;;;;;4.53;2.10;;;21.50;99.90;;;;;;5021764;28;20213;-69
2023/09/21 08:50:27;;;;;;;2.67;2.47;;;21.70;99.90;;;;;;5039149;28;20468;-69
2023/09/21 08:52:54;;;;;;;2.57;2.37;;;21.70;99.90;;;;;;5045539;28;20609;-62
2023/09/21 08:55:25;;;;;;;2.60;2.40;;;21.80;99.90;;;;;;5036549;28;20320;-60
2023/09/21 08:57:52;;;;;;;2.70;2.10;;;21.80;99.90;;;;;;5021519;28;20204;-67
2023/09/21 09:00:21;;;;;;;2.90;2.53;;;21.80;99.90;;;;;;5036344;28;20213;-64
2023/09/21 09:02:47;;;;;;;5.67;3.27;;;21.90;99.90;;;;;;5019615;28;20289;-66
2023/09/21 09:05:13;;;;;;;3.70;2.70;;;21.80;99.90;;;;;;5040988;28;20712;-66
2023/09/21 09:07:40;;;;;;;6.53;2.63;;;21.90;99.90;;;;;;5039528;28;20206;-67
2023/09/21 09:10:07;;;;;;;7.00;2.37;;;22.00;99.90;;;;;;5031984;28;20224;-62
2023/09/21 09:12:32;;;;;;;2.27;2.03;;;22.10;99.90;;;;;;5040391;28;20199;-62
2023/09/21 09:15:02;;;;;;;4.80;2.17;;;22.20;99.90;;;;;;5039228;28;20264;-62
2023/09/21 09:17:30;;;;;;;6.20;2.70;;;22.20;99.90;;;;;;5038556;28;20248;-62
2023/09/21 09:19:57;;;;;;;5.37;2.70;;;22.30;99.90;;;;;;5038362;28;20202;-62
2023/09/21 09:22:23;;;;;;;5.60;2.70;;;22.40;99.90;;;;;;5034550;28;20721;-64
2023/09/21 09:24:49;;;;;;;2.65;2.17;;;22.40;99.90;;;;;;5039087;28;20194;-66
2023/09/21 09:27:16;;;;;;;11.17;2.93;;;22.50;99.90;;;;;;5038821;28;20213;-61
2023/09/21 09:29:52;;;;;;;2.53;2.33;;;22.50;99.90;;;;;;5020951;28;20201;-62
2023/09/21 09:32:21;;;;;;;2.40;2.20;;;22.50;99.90;;;;;;5036685;28;20217;-61
2023/09/21 09:34:47;;;;;;;4.28;2.85;;;22.60;99.90;;;;;;5039329;28;20201;-63
2023/09/21 09:37:15;;;;;;;4.20;2.47;;;22.60;99.90;;;;;;5035662;28;20210;-62
2023/09/21 09:39:45;;;;;;;5.33;1.97;;;22.70;99.90;;;;;;5034539;28;20206;-65
2023/09/21 09:42:14;;;;;;;5.03;2.47;;;22.70;99.90;;;;;;5034709;28;20256;-61
2023/09/21 09:44:47;;;;;;;2.13;2.00;;;22.70;99.90;;;;;;5039845;28;20276;-61
2023/09/21 09:47:16;;;;;;;7.53;2.10;;;22.80;99.90;;;;;;5039512;28;20209;-61
2023/09/21 09:49:45;;;;;;;2.13;1.93;;;22.90;99.90;;;;;;5029046;28;20278;-63
2023/09/21 09:52:13;;;;;;;3.60;2.22;;;22.90;99.90;;;;;;5040297;28;20203;-60
2023/09/21 09:54:40;;;;;;;5.10;1.77;;;23.00;99.90;;;;;;5037948;28;20208;-64
2023/09/21 09:57:11;;;;;;;2.97;1.90;;;23.10;99.90;;;;;;5036297;28;20926;-64
2023/09/21 09:59:37;;;;;;;2.40;2.20;;;23.20;99.90;;;;;;5031873;28;20199;-61
2023/09/21 10:02:05;;;;;;;2.58;2.38;;;23.30;99.90;;;;;;5037370;28;20222;-61
2023/09/21 10:04:34;;;;;;;4.07;2.08;;;23.50;99.90;;;;;;5033904;28;20567;-61
2023/09/21 10:07:00;;;;;;;4.70;2.60;;;23.40;99.90;;;;;;5040243;28;20190;-61
2023/09/21 10:09:27;;;;;;;4.03;2.35;;;23.50;99.90;;;;;;5038052;28;20207;-62
2023/09/21 10:11:54;;;;;;;2.95;1.90;;;23.50;99.90;;;;;;5039875;28;20795;-64
2023/09/21 10:14:20;;;;;;;3.05;2.00;;;23.60;99.90;;;;;;5037606;28;20681;-65
2023/09/21 10:16:56;;;;;;;3.38;1.70;;;23.70;99.90;;;;;;5038437;28;20221;-66
2023/09/21 10:19:26;;;;;;;4.05;2.20;;;23.70;99.90;;;;;;5037321;28;20201;-66
2023/09/21 10:22:03;;;;;;;2.17;1.83;;;23.80;99.90;;;;;;5033326;28;20199;-62
2023/09/21 10:24:30;;;;;;;3.70;1.77;;;24.00;99.90;;;;;;5030856;28;20213;-60
2023/09/21 10:27:01;;;;;;;1.85;1.73;;;24.00;99.90;;;;;;5034742;28;20206;-61
2023/09/21 10:29:32;;;;;;;1.85;1.67;;;24.00;99.90;;;;;;5041729;28;20191;-61
2023/09/21 10:32:03;;;;;;;2.72;2.20;;;24.10;99.90;;;;;;5023744;28;20203;-61
2023/09/21 10:34:29;;;;;;;3.38;1.92;;;24.20;99.90;;;;;;5037354;28;20198;-62
2023/09/21 10:37:01;;;;;;;8.65;2.05;;;24.40;99.90;;;;;;5038888;28;20215;-65
2023/09/21 10:39:30;;;;;;;8.95;2.42;;;24.70;99.90;;;;;;5033716;28;20264;-66
2023/09/21 10:42:03;;;;;;;2.30;2.08;;;24.80;99.90;;;;;;5041440;28;20251;-66
2023/09/21 10:45:03;;;;;;;1.75;1.60;;;24.80;99.90;;;;;;5014975;28;20639;-62
2023/09/21 10:47:32;;;;;;;9.00;1.75;;;25.00;99.90;;;;;;5034742;28;20832;-62
2023/09/21 10:50:10;;;;;;;3.55;1.80;;;25.00;99.90;;;;;;5029895;28;20211;-63
2023/09/21 10:52:41;;;;;;;1.83;1.73;;;25.20;99.90;;;;;;5034284;28;20433;-61
2023/09/21 10:55:09;;;;;;;2.40;1.40;;;25.20;99.90;;;;;;5017575;28;20200;-66
2023/09/21 10:57:35;;;;;;;3.47;1.80;;;25.40;98.60;;;;;;5016339;28;20228;-61
2023/09/21 11:00:02;;;;;;;2.42;1.77;;;25.50;98.50;;;;;;5035789;28;20197;-61
2023/09/21 11:02:34;;;;;;;1.70;1.60;;;25.50;98.00;;;;;;5037634;28;20185;-60
2023/09/21 11:05:00;;;;;;;4.28;1.88;;;25.60;97.80;;;;;;5037329;28;20671;-61
2023/09/21 11:07:26;;;;;;;2.42;1.90;;;25.50;97.60;;;;;;5040593;28;20202;-65
2023/09/21 11:09:52;;;;;;;3.30;1.55;;;25.60;96.40;;;;;;5036334;28;20255;-65
2023/09/21 11:12:17;;;;;;;2.88;1.52;;;25.80;96.00;;;;;;5040740;28;20213;-61
2023/09/21 11:14:48;;;;;;;3.67;1.85;;;26.00;95.80;;;;;;5036514;28;20271;-61
2023/09/21 11:17:18;;;;;;;2.80;1.40;;;26.40;95.80;;;;;;5033834;28;20667;-61
2023/09/21 11:19:45;;;;;;;2.58;1.55;;;26.70;95.00;;;;;;5037009;28;20270;-61
2023/09/21 11:22:14;;;;;;;2.13;1.92;;;27.00;94.30;;;;;;5037683;28;20214;-61
2023/09/21 11:24:40;;;;;;;5.25;1.77;;;26.70;94.10;;;;;;5043556;28;20272;-65
2023/09/21 11:27:10;;;;;;;2.35;1.80;;;26.80;93.90;;;;;;5032567;28;20904;-61
2023/09/21 11:29:39;;;;;;;1.48;1.30;;;27.20;94.30;;;;;;5036462;28;20202;-61
2023/09/21 11:32:07;;;;;;;1.98;1.80;;;27.50;93.80;;;;;;5035157;28;20201;-62
2023/09/21 11:34:36;;;;;;;2.20;1.67;;;27.60;93.20;;;;;;5010538;28;20199;-61
2023/09/21 11:37:03;;;;;;;2.15;1.38;;;27.50;92.80;;;;;;5035663;28;20252;-61
2023/09/21 11:39:29;;;;;;;3.38;1.52;;;27.90;91.80;;;;;;5033820;28;20238;-61
2023/09/21 11:41:55;;;;;;;2.10;1.90;;;27.50;92.10;;;;;;5036055;28;20778;-62
2023/09/21 11:44:29;;;;;;;2.25;1.85;;;27.60;92.70;;;;;;5008587;28;20947;-61
2023/09/21 11:46:57;;;;;;;4.55;1.98;;;27.50;91.30;;;;;;5041255;28;20198;-61
2023/09/21 11:49:36;;;;;;;2.42;1.92;;;27.70;92.80;;;;;;5040927;28;20244;-61
2023/09/21 11:52:01;;;;;;;2.55;1.98;;;27.90;91.10;;;;;;5037844;28;20205;-62
2023/09/21 11:54:29;;;;;;;4.45;2.05;;;27.30;90.70;;;;;;5037424;28;20198;-62
2023/09/21 11:56:55;;;;;;;4.18;2.00;;;27.50;90.90;;;;;;5033436;28;20249;-61
2023/09/21 11:59:21;;;;;;;4.05;1.90;;;27.90;90.10;;;;;;5022676;28;20652;-62
2023/09/21 12:01:48;;;;;;;1.70;1.60;;;27.90;89.70;;;;;;5041152;28;20218;-61
2023/09/21 12:04:16;;;;;;;1.65;1.50;;;27.90;89.70;;;;;;5028493;28;20199;-63
2023/09/21 12:06:42;;;;;;;3.47;1.60;;;28.20;89.20;;;;;;5035393;28;20754;-62
2023/09/21 12:09:08;;;;;;;2.22;1.80;;;28.50;85.30;;;;;;5035522;28;20571;-60
2023/09/21 12:11:34;;;;;;;3.08;1.95;;;29.00;83.30;;;;;;5042534;28;20194;-60
2023/09/21 12:14:04;;;;;;;1.90;1.60;;;29.30;83.00;;;;;;5037146;28;20891;-61
2023/09/21 12:16:30;;;;;;;3.58;1.80;;;29.10;86.00;;;;;;5036311;28;20210;-61
2023/09/21 12:18:58;;;;;;;1.95;1.70;;;28.90;86.60;;;;;;5032602;28;20226;-61
2023/09/21 12:21:25;;;;;;;3.33;1.88;;;29.40;80.60;;;;;;5036051;28;20197;-61
2023/09/21 12:23:51;;;;;;;2.45;1.90;;;29.40;80.30;;;;;;5040692;28;20518;-61
2023/09/21 12:26:17;;;;;;;1.88;1.77;;;29.00;80.70;;;;;;5037187;28;20199;-61
2023/09/21 12:28:43;;;;;;;2.13;1.48;;;29.20;79.10;;;;;;5043468;28;20276;-61
2023/09/21 12:31:08;;;;;;;1.98;1.77;;;29.40;78.40;;;;;;5041847;28;20198;-61
2023/09/21 12:33:35;;;;;;;2.40;2.20;;;29.80;76.70;;;;;;5035613;28;20650;-61
2023/09/21 12:36:02;;;;;;;1.63;1.52;;;29.70;77.30;;;;;;5032384;28;20210;-61
2023/09/21 12:38:27;;;;;;;3.22;1.90;;;29.40;75.60;;;;;;5039787;28;20252;-63
2023/09/21 12:40:54;;;;;;;3.80;1.65;;;29.50;75.20;;;;;;5035933;28;20206;-61
2023/09/21 12:43:20;;;;;;;1.58;1.48;;;30.00;75.20;;;;;;5031612;28;20227;-61
2023/09/21 12:45:45;;;;;;;1.75;1.65;;;29.80;75.50;;;;;;5036616;28;20233;-62
2023/09/21 12:48:13;;;;;;;2.17;1.80;;;29.80;73.30;;;;;;5034284;28;20273;-62
2023/09/21 12:50:38;;;;;;;2.28;2.00;;;29.70;74.80;;;;;;5032118;28;20209;-62